Time;durP1;ratioP1;P1;durP2;ratioP2;P2;SDS_P1;SDS_P2;PMS_P1;PMS_P2;Temp;Humidity;BMP_temperature;BMP_pressure;BME280_temperature;BME280_humidity;BME280_pressure;Samples;Min_cycle;Max_cycle;Signal;HPM_P1;HPM_P2
2020/12/11 00:00:00;;;;;;;33.60;12.23;;;;;;;-3.18;79.89;102027.87;1847355;77;21173;-91
2020/12/11 00:02:26;;;;;;;27.27;10.50;;;;;;;-3.20;79.93;102028.51;1847575;77;21240;-91
2020/12/11 00:04:52;;;;;;;36.13;11.73;;;;;;;-3.16;79.55;102023.30;1847532;77;22020;-90
2020/12/11 00:07:18;;;;;;;33.92;11.53;;;;;;;-3.09;79.56;102023.13;1847380;77;20888;-91
2020/12/11 00:09:44;;;;;;;34.88;11.40;;;;;;;-3.15;79.86;102032.88;1847560;77;20952;-91
2020/12/11 00:12:09;;;;;;;33.67;11.65;;;;;;;-3.28;79.99;102027.02;1847518;77;20925;-91
2020/12/11 00:14:35;;;;;;;33.53;11.43;;;;;;;-3.17;79.79;102028.73;1816904;78;20942;-91
2020/12/11 00:17:01;;;;;;;33.40;12.05;;;;;;;-3.34;80.44;102024.91;1808098;79;21267;-91
2020/12/11 00:19:27;;;;;;;32.60;11.10;;;;;;;-3.31;80.03;102022.84;1808132;79;21580;-91
2020/12/11 00:21:52;;;;;;;29.30;11.00;;;;;;;-3.36;80.22;102020.25;1808219;79;27257;-91
2020/12/11 00:24:18;;;;;;;36.77;11.38;;;;;;;-3.46;80.58;102017.10;1808226;79;20930;-91
2020/12/11 00:26:45;;;;;;;30.50;9.70;;;;;;;-3.55;80.70;102016.58;1808324;79;21664;-90
2020/12/11 00:29:11;;;;;;;33.30;9.88;;;;;;;-3.52;80.53;102020.27;1810189;78;21742;-91
2020/12/11 00:31:38;;;;;;;28.25;10.32;;;;;;;-3.63;81.17;102016.89;1819203;78;27733;-91
2020/12/11 00:34:04;;;;;;;28.07;10.38;;;;;;;-3.61;80.96;102022.38;1819304;78;21168;-90
2020/12/11 00:36:30;;;;;;;27.70;10.00;;;;;;;-3.56;80.54;102015.38;1819353;78;21125;-91
2020/12/11 00:38:56;;;;;;;32.28;10.20;;;;;;;-3.62;80.80;102017.23;1829262;77;20987;-91
2020/12/11 00:45:03;;;;;;;31.85;9.90;;;;;;;-3.75;81.29;102013.02;1847441;77;21122;-90
2020/12/11 00:51:09;;;;;;;31.95;10.48;;;;;;;-3.72;81.40;102003.53;1847368;77;21119;-90
2020/12/11 00:53:35;;;;;;;30.90;12.07;;;;;;;-3.92;82.12;101999.13;1847420;77;20992;-90
2020/12/11 00:56:01;;;;;;;37.42;11.45;;;;;;;-3.81;81.80;101994.28;1847306;77;21212;-90
2020/12/11 00:58:27;;;;;;;38.48;11.00;;;;;;;-3.87;81.87;101989.53;1847356;77;26859;-90
2020/12/11 01:00:52;;;;;;;31.75;10.30;;;;;;;-4.06;82.52;101981.86;1847346;77;27076;-90
2020/12/11 01:03:18;;;;;;;26.95;10.30;;;;;;;-4.01;82.55;101984.12;1847428;77;20916;-90
2020/12/11 01:05:44;;;;;;;35.00;12.23;;;;;;;-3.94;81.84;101983.94;1847395;77;20959;-89
2020/12/11 01:08:10;;;;;;;29.92;11.10;;;;;;;-3.86;81.62;101978.86;1847432;77;21862;-90
2020/12/11 01:10:36;;;;;;;34.88;11.25;;;;;;;-4.01;82.03;101982.80;1847371;77;27297;-90
2020/12/11 01:13:02;;;;;;;31.90;11.55;;;;;;;-4.02;82.23;101981.14;1823943;77;26606;-90
2020/12/11 01:15:28;;;;;;;32.33;11.48;;;;;;;-3.90;81.75;101980.09;1847479;77;21149;-89
2020/12/11 01:17:53;;;;;;;27.70;10.55;;;;;;;-4.07;82.10;101990.73;1823897;77;20964;-89
2020/12/11 01:20:19;;;;;;;30.37;11.63;;;;;;;-4.08;82.20;101973.28;1847499;77;21221;-90
2020/12/11 01:22:45;;;;;;;25.15;10.13;;;;;;;-4.12;82.33;101984.55;1847385;77;26954;-91
2020/12/11 01:25:11;;;;;;;30.17;10.40;;;;;;;-4.13;82.26;101983.36;1847236;77;20940;-90
2020/12/11 01:27:37;;;;;;;25.48;9.20;;;;;;;-4.09;82.37;101980.80;1847330;77;21007;-90
2020/12/11 01:30:05;;;;;;;29.98;9.73;;;;;;;-4.06;82.04;101970.02;1847200;77;21031;-90
2020/12/11 01:32:33;;;;;;;36.55;10.60;;;;;;;-4.15;82.01;101965.53;1824115;77;21603;-89
2020/12/11 01:35:00;;;;;;;29.55;9.65;;;;;;;-4.30;82.85;101962.88;1847302;77;21110;-90
2020/12/11 01:37:26;;;;;;;31.12;10.95;;;;;;;-4.32;82.44;101956.45;1847599;77;21106;-90
2020/12/11 01:39:53;;;;;;;33.33;11.03;;;;;;;-4.11;82.08;101952.48;1847392;77;21094;-91
2020/12/11 01:42:19;;;;;;;34.15;10.90;;;;;;;-4.12;81.87;101955.60;1847506;77;21594;-90
2020/12/11 01:44:53;;;;;;;31.40;10.20;;;;;;;-4.15;82.33;101965.08;1847610;77;21198;-90
2020/12/11 01:47:23;;;;;;;32.48;9.48;;;;;;;-4.32;82.91;101956.45;1847518;77;21114;-90
2020/12/11 01:49:51;;;;;;;31.00;10.90;;;;;;;-4.24;82.44;101953.98;1847571;77;21154;-90
2020/12/11 01:52:19;;;;;;;31.40;9.88;;;;;;;-4.18;82.17;101952.14;1847430;77;21142;-91
2020/12/11 01:54:47;;;;;;;29.67;10.40;;;;;;;-4.21;82.43;101962.93;1847640;77;21054;-90
2020/12/11 01:57:34;;;;;;;27.85;10.93;;;;;;;-4.07;81.58;101961.77;1847598;77;21209;-90
2020/12/11 02:00:05;;;;;;;30.32;10.48;;;;;;;-4.07;81.57;101959.14;1847412;77;21158;-90
2020/12/11 02:02:38;;;;;;;29.77;10.80;;;;;;;-4.25;82.05;101960.22;1847665;77;21539;-90
2020/12/11 02:05:08;;;;;;;30.75;10.85;;;;;;;-4.29;82.30;101954.02;1847500;77;21169;-90
2020/12/11 02:07:38;;;;;;;30.70;10.50;;;;;;;-4.24;82.38;101952.66;1707574;83;21160;-90
2020/12/11 02:10:05;;;;;;;26.73;9.60;;;;;;;-4.47;83.09;101938.83;1684788;83;21162;-90
2020/12/11 02:12:31;;;;;;;26.17;9.75;;;;;;;-4.41;83.04;101950.16;1707844;83;21120;-90
2020/12/11 02:14:58;;;;;;;28.92;10.58;;;;;;;-4.40;82.89;101947.04;1708349;83;21148;-90
2020/12/11 02:17:26;;;;;;;24.55;8.65;;;;;;;-4.37;82.60;101949.41;1708296;83;21281;-90
2020/12/11 02:19:54;;;;;;;34.53;10.95;;;;;;;-4.49;83.33;101945.18;1707924;83;21219;-89
2020/12/11 02:22:20;;;;;;;31.40;9.78;;;;;;;-4.51;83.55;101944.46;1707691;83;21133;-90
2020/12/11 02:24:46;;;;;;;32.00;10.43;;;;;;;-4.45;83.13;101941.31;1708053;83;26942;-90
2020/12/11 02:27:11;;;;;;;29.52;10.38;;;;;;;-4.28;82.33;101938.59;1708323;83;27029;-90
2020/12/11 02:29:37;;;;;;;24.02;9.23;;;;;;;-4.42;83.21;101935.80;1706922;83;20981;-90
2020/12/11 02:32:03;;;;;;;25.17;9.68;;;;;;;-4.46;83.11;101934.40;1692706;84;21706;-90
2020/12/11 02:34:29;;;;;;;30.30;9.58;;;;;;;-4.39;82.92;101931.11;1704106;83;21171;-89
2020/12/11 02:37:02;;;;;;;31.23;10.38;;;;;;;-4.53;83.43;101932.73;1691521;84;27044;-89
2020/12/11 02:39:29;;;;;;;30.35;10.55;;;;;;;-4.64;83.79;101929.70;1702436;83;21151;-88
2020/12/11 02:41:55;;;;;;;32.00;10.72;;;;;;;-4.45;83.36;101932.94;1702680;84;21109;-88
2020/12/11 02:44:21;;;;;;;34.63;11.57;;;;;;;-4.44;83.23;101929.37;1683111;84;21132;-89
2020/12/11 02:46:47;;;;;;;24.63;10.30;;;;;;;-4.46;83.18;101931.77;1701925;84;21882;-89
2020/12/11 02:49:14;;;;;;;25.50;9.98;;;;;;;-4.60;83.94;101926.34;1702945;84;21594;-89
2020/12/11 02:51:40;;;;;;;32.60;10.78;;;;;;;-4.66;84.13;101924.22;1702269;84;21609;-88
2020/12/11 02:54:06;;;;;;;34.25;11.80;;;;;;;-4.52;83.39;101926.54;1693111;84;20959;-88
2020/12/11 02:56:33;;;;;;;25.37;9.80;;;;;;;-4.50;83.59;101922.45;1695718;83;21161;-89
2020/12/11 02:58:58;;;;;;;27.00;10.68;;;;;;;-4.52;83.40;101927.85;1682456;84;23211;-89
2020/12/11 03:01:28;;;;;;;28.27;10.45;;;;;;;-4.48;83.46;101927.94;1682404;85;27024;-88
2020/12/11 03:03:58;;;;;;;29.60;10.43;;;;;;;-4.51;83.53;101926.88;1703193;82;21146;-88
2020/12/11 03:08:57;;;;;;;29.65;11.35;;;;;;;-4.57;84.13;101922.13;1711471;83;21623;-89
2020/12/11 03:11:24;;;;;;;34.00;12.37;;;;;;;-4.57;83.81;101916.88;1710796;83;21918;-92
2020/12/11 03:13:50;;;;;;;30.48;11.40;;;;;;;-4.59;84.12;101917.47;1710893;83;22087;-91
2020/12/11 03:16:16;;;;;;;31.10;10.60;;;;;;;-4.46;83.56;101912.87;1710650;83;26734;-91
2020/12/11 03:18:44;;;;;;;32.50;10.78;;;;;;;-4.42;83.34;101911.63;1710809;83;21168;-91
2020/12/11 03:21:10;;;;;;;26.35;9.60;;;;;;;-4.49;83.67;101919.70;1710876;83;21064;-89
2020/12/11 03:23:36;;;;;;;27.32;9.95;;;;;;;-4.51;83.72;101916.84;1742863;80;21356;-89
2020/12/11 03:26:03;;;;;;;35.90;11.45;;;;;;;-4.64;84.40;101912.61;1776044;80;21172;-88
2020/12/11 03:28:31;;;;;;;31.85;11.10;;;;;;;-4.64;84.36;101909.98;1776235;80;21191;-89
2020/12/11 03:30:57;;;;;;;33.30;11.78;;;;;;;-4.61;84.21;101914.98;1772407;78;21148;-89
2020/12/11 03:33:23;;;;;;;32.17;11.05;;;;;;;-4.69;84.46;101917.90;1739292;81;21108;-90
2020/12/11 03:35:49;;;;;;;30.32;10.72;;;;;;;-4.65;84.24;101915.36;1765845;81;21006;-88
2020/12/11 03:38:15;;;;;;;28.80;11.65;;;;;;;-4.82;85.12;101909.72;1765950;81;23399;-89
2020/12/11 03:40:41;;;;;;;29.42;11.48;;;;;;;-4.73;85.12;101913.38;1765751;81;26645;-90
2020/12/11 03:43:07;;;;;;;27.13;10.50;;;;;;;-4.66;84.64;101910.58;1765834;81;21417;-89
2020/12/11 03:45:33;;;;;;;35.60;10.45;;;;;;;-4.70;84.78;101903.09;1765916;81;21050;-89
2020/12/11 03:47:58;;;;;;;34.20;10.32;;;;;;;-4.86;85.32;101902.20;1765932;81;21213;-89
2020/12/11 03:50:24;;;;;;;38.25;12.73;;;;;;;-4.64;84.65;101907.84;1765767;81;27058;-90
2020/12/11 03:52:50;;;;;;;29.77;11.60;;;;;;;-4.85;85.18;101906.03;1765915;81;26674;-89
2020/12/11 03:55:16;;;;;;;41.60;12.55;;;;;;;-4.87;85.60;101907.11;1765744;81;21537;-89
2020/12/11 03:57:42;;;;;;;30.35;11.25;;;;;;;-4.69;84.89;101900.80;1765689;81;20939;-89
2020/12/11 04:00:08;;;;;;;34.13;12.20;;;;;;;-4.88;85.51;101898.39;1740426;81;21231;-89
2020/12/11 04:02:34;;;;;;;32.00;11.00;;;;;;;-4.85;85.69;101905.20;1765879;81;27019;-88
2020/12/11 04:05:05;;;;;;;33.00;11.25;;;;;;;-5.03;85.97;101897.86;1780341;78;21083;-89
2020/12/11 04:07:32;;;;;;;33.40;11.40;;;;;;;-5.01;86.08;101906.92;1828383;78;21118;-88
2020/12/11 04:09:58;;;;;;;29.25;11.00;;;;;;;-5.06;86.21;101905.14;1828288;78;21130;-90
2020/12/11 04:16:04;;;;;;;29.30;11.38;;;;;;;-5.17;86.66;101906.03;1828137;77;21143;-88
2020/12/11 04:18:32;;;;;;;29.90;9.98;;;;;;;-5.12;86.75;101915.66;1828068;78;33409;-88
2020/12/11 04:20:58;;;;;;;26.12;10.20;;;;;;;-5.25;87.26;101897.93;1828292;78;21550;-89
2020/12/11 04:23:27;;;;;;;37.25;12.40;;;;;;;-5.23;87.32;101901.77;1828498;77;21067;-89
2020/12/11 04:25:54;;;;;;;32.10;11.18;;;;;;;-5.29;87.36;101904.41;1828284;78;21129;-88
2020/12/11 04:28:21;;;;;;;32.50;11.45;;;;;;;-5.36;87.21;101894.84;1828237;78;21150;-89
2020/12/11 04:30:47;;;;;;;27.20;10.85;;;;;;;-5.37;87.45;101903.69;1818856;78;21115;-91
2020/12/11 04:33:13;;;;;;;32.93;9.60;;;;;;;-5.44;87.54;101905.16;1823100;78;21520;-91
2020/12/11 04:35:39;;;;;;;29.27;10.50;;;;;;;-5.53;87.75;101903.23;1828281;78;20937;-89
2020/12/11 04:38:05;;;;;;;31.25;11.12;;;;;;;-5.59;88.28;101904.59;1828290;78;21211;-89
2020/12/11 04:40:31;;;;;;;30.12;11.35;;;;;;;-5.54;88.29;101888.45;1828187;78;27015;-89
2020/12/11 04:42:58;;;;;;;33.55;11.78;;;;;;;-5.52;88.05;101891.80;1828331;78;21091;-88
2020/12/11 04:45:25;;;;;;;28.87;11.60;;;;;;;-5.52;88.16;101893.94;1828116;78;21190;-89
2020/12/11 04:47:52;;;;;;;31.97;12.10;;;;;;;-5.48;88.04;101907.66;1828288;78;21104;-89
2020/12/11 04:50:19;;;;;;;33.90;13.20;;;;;;;-5.42;87.88;101902.39;1828177;78;21624;-89
2020/12/11 04:52:48;;;;;;;27.32;11.53;;;;;;;-5.45;88.12;101902.64;1828206;78;21508;-89
2020/12/11 04:55:21;;;;;;;30.65;11.60;;;;;;;-5.61;88.57;101893.84;1807385;78;21162;-89
2020/12/11 04:57:50;;;;;;;30.77;11.08;;;;;;;-5.58;88.43;101901.00;1828197;77;21115;-88
2020/12/11 05:00:20;;;;;;;33.02;10.98;;;;;;;-5.44;88.14;101889.40;1828302;77;21055;-89
2020/12/11 05:02:47;;;;;;;30.90;11.93;;;;;;;-5.51;87.74;101900.02;1828388;78;21883;-89
2020/12/11 05:05:16;;;;;;;32.58;11.78;;;;;;;-5.54;87.77;101889.28;1828169;78;21102;-91
2020/12/11 05:07:43;;;;;;;36.08;11.40;;;;;;;-5.59;87.86;101894.09;1720055;82;21171;-89
2020/12/11 05:10:11;;;;;;;29.52;10.63;;;;;;;-5.64;87.95;101913.30;1719614;83;21142;-89
2020/12/11 05:12:38;;;;;;;22.15;9.58;;;;;;;-5.66;88.02;101903.39;1719881;83;21206;-89
2020/12/11 05:15:10;;;;;;;31.12;10.70;;;;;;;-5.68;88.26;101899.21;1719762;83;21550;-89
2020/12/11 05:17:39;;;;;;;25.57;9.90;;;;;;;-5.73;88.18;101899.11;1719713;83;21181;-91
2020/12/11 05:20:08;;;;;;;28.62;9.98;;;;;;;-5.71;87.91;101905.08;1632972;87;21100;-91
2020/12/11 05:22:38;;;;;;;30.90;10.48;;;;;;;-5.71;88.07;101901.59;1633185;87;21136;-90
2020/12/11 05:25:13;;;;;;;31.65;11.18;;;;;;;-5.75;88.12;101904.95;1577006;89;21811;-90
2020/12/11 05:27:38;;;;;;;36.08;12.03;;;;;;;-5.68;87.92;101902.66;1573963;91;21251;-89
2020/12/11 05:30:18;;;;;;;26.05;9.65;;;;;;;-5.80;88.01;101894.45;1577063;89;21200;-88
2020/12/11 05:32:49;;;;;;;32.05;11.30;;;;;;;-5.82;88.17;101902.46;1579525;88;21186;-88
2020/12/11 05:35:25;;;;;;;33.67;11.40;;;;;;;-5.75;87.87;101901.02;1579169;89;21217;-88
2020/12/11 05:37:59;;;;;;;27.85;11.18;;;;;;;-5.65;87.53;101908.16;1579391;89;21204;-88
2020/12/11 05:40:32;;;;;;;27.75;9.60;;;;;;;-5.72;87.76;101909.13;1579413;89;21862;-89
2020/12/11 05:43:14;;;;;;;;;;;;;;;-5.79;87.68;101905.33;1581705;89;21176;-89
2020/12/11 05:45:56;;;;;;;34.20;10.75;;;;;;;-5.78;87.73;101903.88;1578981;89;20435;-88
2020/12/11 05:48:25;;;;;;;29.32;10.40;;;;;;;-5.61;87.26;101900.41;1524318;94;21234;-88
2020/12/11 05:50:52;;;;;;;35.20;11.53;;;;;;;-5.68;87.21;101896.10;1524412;94;21604;-88
2020/12/11 05:53:19;;;;;;;29.98;10.72;;;;;;;-5.46;86.86;101900.50;1524578;94;21966;-88
2020/12/11 05:55:46;;;;;;;27.77;9.70;;;;;;;-5.38;86.49;101901.17;1524490;92;21084;-88
2020/12/11 05:58:12;;;;;;;32.85;9.43;;;;;;;-5.27;85.77;101899.35;1524391;94;21529;-89
2020/12/11 06:00:40;;;;;;;27.02;9.33;;;;;;;-4.99;84.35;101893.19;1524487;94;21238;-89
2020/12/11 06:03:07;;;;;;;28.20;9.10;;;;;;;-4.74;83.46;101891.14;1524557;94;21263;-89
2020/12/11 06:05:39;;;;;;;30.88;10.18;;;;;;;-4.71;83.34;101898.29;1592715;88;21263;-89
2020/12/11 06:08:09;;;;;;;27.48;8.80;;;;;;;-4.18;81.08;101895.56;1597545;88;21162;-89
2020/12/11 06:10:39;;;;;;;22.35;7.67;;;;;;;-4.03;80.02;101891.27;1597485;88;21175;-89
2020/12/11 06:13:04;;;;;;;25.95;8.18;;;;;;;-3.27;78.74;101890.30;1600131;88;21210;-89
2020/12/11 06:15:38;;;;;;;26.77;8.28;;;;;;;-3.26;77.14;101877.00;1600102;88;21721;-90
2020/12/11 06:18:17;;;;;;;32.28;8.53;;;;;;;-3.54;76.84;101887.83;1633373;87;21277;-90
2020/12/11 06:20:47;;;;;;;24.82;8.35;;;;;;;-2.68;74.81;101878.77;1635766;87;21194;-90
2020/12/11 06:23:25;;;;;;;38.42;10.78;;;;;;;-2.60;74.22;101876.75;1635683;87;21166;-90
2020/12/11 06:29:39;;;;;;;27.77;9.30;;;;;;;-1.37;70.45;101869.41;1671748;84;21116;-91
2020/12/11 06:32:03;;;;;;;27.65;10.03;;;;;;;-1.25;70.23;101866.55;1680425;84;21235;-90
2020/12/11 06:34:29;;;;;;;23.47;9.03;;;;;;;-1.30;68.05;101861.70;1680321;85;21017;-90
2020/12/11 06:36:55;;;;;;;27.37;8.95;;;;;;;-1.51;68.88;101860.66;1680304;85;21595;-90
2020/12/11 06:39:45;;;;;;;30.05;10.23;;;;;;;-0.78;67.47;101840.66;1706703;83;21659;-89
2020/12/11 06:42:39;;;;;;;29.37;9.95;;;;;;;0.05;66.08;101844.09;1725714;83;21669;-91
2020/12/11 06:45:26;;;;;;;25.95;9.68;;;;;;;0.86;62.76;101852.77;1725813;83;21214;-91
2020/12/11 06:47:58;;;;;;;28.47;10.53;;;;;;;0.45;63.39;101842.08;1662380;85;21212;-91
2020/12/11 06:50:31;;;;;;;28.77;9.40;;;;;;;0.98;61.76;101845.30;1662657;86;21544;-91
2020/12/11 06:53:00;;;;;;;23.60;9.73;;;;;;;0.66;62.66;101836.31;1551865;92;21218;-89
2020/12/11 06:55:52;;;;;;;27.20;8.78;;;;;;;1.32;61.48;101827.02;1578888;89;21714;-91
2020/12/11 06:58:20;;;;;;;21.80;8.35;;;;;;;0.61;62.36;101825.36;1610777;89;21389;-92
2020/12/11 07:00:53;;;;;;;24.35;9.38;;;;;;;1.30;61.37;101824.55;1610600;89;21191;-92
2020/12/11 07:03:28;;;;;;;23.25;8.45;;;;;;;2.46;59.91;101824.44;1610943;89;21226;-92
2020/12/11 07:06:06;;;;;;;24.20;9.25;;;;;;;2.43;56.52;101812.83;1610895;89;21238;-91
2020/12/11 07:08:33;;;;;;;30.12;9.00;;;;;;;2.32;56.47;101826.00;1611005;89;21267;-92
2020/12/11 07:11:07;;;;;;;21.40;8.68;;;;;;;2.12;55.45;101815.48;1610908;89;21863;-91
2020/12/11 07:13:36;;;;;;;22.52;9.83;;;;;;;2.77;55.00;101811.61;1610846;89;21226;-92
2020/12/11 07:16:03;;;;;;;26.97;9.25;;;;;;;3.23;54.64;101803.03;1610982;89;21226;-92
2020/12/11 07:18:30;;;;;;;17.23;7.62;;;;;;;4.19;53.69;101807.94;1610988;89;21603;-92
2020/12/11 07:20:59;;;;;;;19.98;8.08;;;;;;;3.60;50.58;101814.15;1610907;89;21178;-91
2020/12/11 07:23:25;;;;;;;23.40;9.05;;;;;;;4.53;51.47;101812.63;1610986;89;21396;-92
2020/12/11 07:25:54;;;;;;;20.90;8.58;;;;;;;4.54;51.84;101800.92;1610829;89;21245;-91
2020/12/11 07:28:21;;;;;;;21.20;8.13;;;;;;;4.23;49.87;101793.19;1610866;89;21311;-93
2020/12/11 07:30:49;;;;;;;24.63;10.38;;;;;;;3.83;51.75;101802.06;1665967;83;21168;-91
2020/12/11 07:33:16;;;;;;;21.00;9.45;;;;;;;3.63;52.25;101814.29;1683642;85;21161;-93
2020/12/11 07:35:49;;;;;;;21.82;8.80;;;;;;;4.88;49.35;101825.27;1683621;85;21234;-93
2020/12/11 07:38:24;;;;;;;21.35;9.33;;;;;;;3.33;51.34;101798.28;1617931;86;21183;-93
2020/12/11 07:44:37;;;;;;;17.92;8.43;;;;;;;6.30;46.42;101796.88;1721490;80;21958;-93
2020/12/11 07:54:34;;;;;;;21.23;9.43;;;;;;;5.91;44.38;101780.92;1721933;80;21205;-94
2020/12/11 08:00:09;;;;;;;33.13;10.95;;;;;;;6.89;44.64;101775.22;1705772;83;21191;-94
2020/12/11 08:02:35;;;;;;;23.38;8.35;;;;;;;6.22;44.97;101771.09;1705646;84;21016;-94
2020/12/11 08:05:07;;;;;;;23.77;9.40;;;;;;;5.21;48.19;101768.13;1705817;83;21706;-94
2020/12/11 08:07:33;;;;;;;24.12;10.03;;;;;;;5.19;47.75;101776.83;1709817;82;21206;-95
2020/12/11 08:10:09;;;;;;;26.45;11.05;;;;;;;5.49;48.37;101764.58;1710310;83;21209;-94
2020/12/11 08:12:35;;;;;;;28.15;11.85;;;;;;;6.08;46.79;101763.53;1710179;83;21219;-92
2020/12/11 08:18:42;;;;;;;26.52;11.20;;;;;;;4.58;48.32;101760.50;1709998;83;21202;-90
2020/12/11 08:21:09;;;;;;;31.02;10.90;;;;;;;4.24;49.32;101759.36;1674216;83;21296;-90
2020/12/11 08:23:45;;;;;;;30.45;10.65;;;;;;;3.77;50.09;101754.81;1710100;83;21170;-90
2020/12/11 08:26:15;;;;;;;31.40;11.15;;;;;;;2.44;55.59;101777.22;1709921;83;21218;-90
2020/12/11 08:28:43;;;;;;;26.12;9.98;;;;;;;2.26;56.63;101778.36;1710125;83;21146;-90
2020/12/11 08:31:28;;;;;;;30.20;9.43;;;;;;;2.67;54.97;101770.06;1731385;80;21268;-90
2020/12/11 08:34:08;;;;;;;27.50;9.13;;;;;;;1.38;60.51;101761.28;1773054;77;21171;-89
2020/12/11 08:36:45;;;;;;;30.08;9.45;;;;;;;1.59;60.49;101760.74;1844519;77;21589;-89
2020/12/11 08:39:19;;;;;;;35.65;11.35;;;;;;;1.04;62.53;101758.88;1844487;77;21161;-89
2020/12/11 08:44:58;;;;;;;31.57;10.15;;;;;;;1.29;61.95;101729.11;1778756;80;21111;-89
2020/12/11 08:49:51;;;;;;;34.10;10.38;;;;;;;1.58;61.22;101732.50;1712752;83;21147;-89
2020/12/11 08:52:16;;;;;;;36.08;10.32;;;;;;;1.31;63.38;101732.44;1711748;83;21218;-89
2020/12/11 08:54:42;;;;;;;34.80;10.85;;;;;;;1.52;62.22;101722.56;1711153;83;21838;-89
2020/12/11 08:57:08;;;;;;;42.53;10.93;;;;;;;1.49;62.53;101730.88;1712439;83;22186;-89
2020/12/11 08:59:34;;;;;;;31.65;9.53;;;;;;;0.94;65.45;101727.19;1709499;83;21092;-90
2020/12/11 09:02:02;;;;;;;31.00;10.63;;;;;;;0.97;65.75;101707.45;1709215;83;21230;-88
2020/12/11 09:04:28;;;;;;;32.25;9.63;;;;;;;0.93;66.08;101720.74;1684594;85;21214;-89
2020/12/11 09:06:55;;;;;;;30.92;10.25;;;;;;;1.13;66.06;101710.08;1685586;85;21130;-89
2020/12/11 09:09:21;;;;;;;29.20;9.20;;;;;;;1.19;65.34;101693.47;1685226;85;21227;-89
2020/12/11 09:11:47;;;;;;;31.15;9.28;;;;;;;0.94;66.93;101702.48;1685358;85;21147;-89
2020/12/11 09:14:13;;;;;;;28.73;9.88;;;;;;;1.03;66.13;101694.36;1685509;85;21124;-89
2020/12/11 09:16:40;;;;;;;49.30;10.23;;;;;;;1.29;66.39;101687.45;1685372;85;21167;-91
2020/12/11 09:19:06;;;;;;;38.73;9.93;;;;;;;1.50;65.40;101683.39;1685537;85;21135;-92
2020/12/11 09:21:31;;;;;;;30.75;9.25;;;;;;;1.68;64.91;101670.70;1719229;81;21218;-91
2020/12/11 09:23:57;;;;;;;44.08;12.15;;;;;;;1.54;65.34;101663.47;1759143;81;21637;-88
2020/12/11 09:26:26;;;;;;;30.05;9.50;;;;;;;1.76;64.54;101679.93;1759121;81;21030;-89
2020/12/11 09:28:57;;;;;;;29.10;9.38;;;;;;;1.55;64.83;101659.29;1759332;81;21220;-88
2020/12/11 09:31:25;;;;;;;33.40;9.33;;;;;;;2.00;63.96;101647.08;1698281;84;21449;-89
2020/12/11 09:33:51;;;;;;;30.72;9.58;;;;;;;2.22;63.12;101651.23;1629689;85;21281;-89
2020/12/11 09:36:17;;;;;;;27.32;8.80;;;;;;;2.00;64.24;101656.38;1671113;85;21244;-87
2020/12/11 09:38:43;;;;;;;34.58;10.43;;;;;;;1.97;64.12;101646.58;1671403;85;21010;-88
2020/12/11 09:41:13;;;;;;;33.85;9.93;;;;;;;2.03;64.30;101644.58;1671263;85;21034;-89
2020/12/11 09:52:01;;;;;;;34.20;9.45;;;;;;;2.19;64.00;101653.73;1738907;82;21269;-88
2020/12/11 09:54:30;;;;;;;31.70;9.93;;;;;;;2.49;63.27;101633.36;1713589;83;21190;-88
2020/12/11 09:56:57;;;;;;;27.93;10.08;;;;;;;2.39;63.84;101619.50;1741629;82;21150;-88
2020/12/11 09:59:32;;;;;;;32.88;9.38;;;;;;;2.38;63.88;101621.00;1748735;81;21141;-89
2020/12/11 10:02:02;;;;;;;37.48;10.90;;;;;;;2.63;63.40;101614.44;1746995;82;21225;-88
2020/12/11 10:04:25;;;;;;;31.37;9.88;;;;;;;2.51;63.55;101626.55;1744857;82;21158;-89
2020/12/11 10:06:51;;;;;;;35.10;11.53;;;;;;;2.52;63.92;101609.56;1748505;81;21019;-88
2020/12/11 10:09:16;;;;;;;26.55;8.63;;;;;;;2.54;63.80;101608.89;1748715;82;21075;-90
2020/12/11 10:11:42;;;;;;;31.50;10.65;;;;;;;2.49;64.13;101609.92;1748624;82;21344;-88
2020/12/11 10:14:22;;;;;;;32.95;10.10;;;;;;;2.82;63.37;101596.27;1748669;82;21138;-89
2020/12/11 10:16:43;;;;;;;28.60;8.80;;;;;;;2.91;62.97;101595.16;1744725;81;21298;-90
2020/12/11 10:19:11;;;;;;;34.58;7.05;;;;;;;2.91;63.10;101588.51;1723560;82;21194;-91
2020/12/11 10:21:37;;;;;;;18.85;5.78;;;;;;;3.15;62.12;101597.55;1748601;82;21154;-91
2020/12/11 10:24:03;;;;;;;28.00;6.72;;;;;;;3.40;60.70;101587.89;1748819;81;22171;-90
2020/12/11 10:26:29;;;;;;;18.42;6.28;;;;;;;3.48;60.12;101598.95;1748668;82;20941;-90
2020/12/11 10:28:55;;;;;;;22.80;6.40;;;;;;;3.48;59.97;101580.30;1748711;81;21147;-90
2020/12/11 10:31:20;;;;;;;22.93;5.92;;;;;;;3.87;58.60;101575.87;1765193;81;21642;-91
2020/12/11 10:33:46;;;;;;;29.00;6.67;;;;;;;3.74;58.58;101561.92;1740991;81;21096;-91
2020/12/11 10:39:53;;;;;;;23.60;6.42;;;;;;;3.80;58.88;101572.33;1763111;80;21189;-92
2020/12/11 10:42:18;;;;;;;20.65;6.00;;;;;;;3.64;59.05;101552.88;1760322;80;20971;-92
2020/12/11 10:44:44;;;;;;;21.27;5.05;;;;;;;3.72;58.96;101559.94;1765471;80;20987;-92
2020/12/11 10:47:10;;;;;;;17.90;5.85;;;;;;;3.67;58.95;101552.20;1791897;78;21092;-90
2020/12/11 10:49:36;;;;;;;16.27;4.87;;;;;;;3.94;58.33;101545.25;1833890;78;21217;-94
2020/12/11 10:55:42;;;;;;;19.35;4.35;;;;;;;3.95;57.99;101555.75;1833722;78;21189;-93
2020/12/11 10:58:08;;;;;;;19.95;5.70;;;;;;;4.20;56.52;101588.15;1833588;78;20927;-92
2020/12/11 11:07:24;;;;;;;34.30;6.42;;;;;;;4.10;56.49;101564.48;1833466;78;21236;-91
2020/12/11 11:09:55;;;;;;;18.20;5.00;;;;;;;4.07;56.31;101546.20;1830144;78;21184;-91
2020/12/11 11:12:25;;;;;;;21.55;5.33;;;;;;;4.28;56.08;101561.84;1829905;78;21129;-91
2020/12/11 11:15:21;;;;;;;17.30;5.17;;;;;;;4.22;56.06;101569.30;1807180;78;21133;-91
2020/12/11 11:34:47;;;;;;;27.20;4.53;;;;;;;4.20;56.80;101557.47;1840835;77;21144;-91
2020/12/11 11:37:13;;;;;;;16.15;4.90;;;;;;;4.23;55.90;101554.92;1818502;77;20907;-90
2020/12/11 11:50:57;;;;;;;18.05;4.60;;;;;;;4.40;55.97;101546.13;1842050;77;21201;-91
2020/12/11 11:53:21;;;;;;;16.48;4.55;;;;;;;4.32;55.65;101547.94;1838397;77;21140;-92
2020/12/11 11:59:26;;;;;;;18.17;4.80;;;;;;;4.53;54.48;101541.70;1841897;77;21193;-92
2020/12/11 12:05:33;;;;;;;19.12;4.40;;;;;;;4.51;55.14;101545.07;1841835;77;21164;-93
2020/12/11 12:07:59;;;;;;;18.32;4.42;;;;;;;4.35;55.82;101535.20;1841738;77;21145;-92
2020/12/11 12:10:25;;;;;;;17.50;5.28;;;;;;;4.17;56.58;101533.03;1841972;77;20993;-92
2020/12/11 12:16:33;;;;;;;15.25;5.05;;;;;;;4.17;56.78;101555.19;1841954;77;21140;-92
2020/12/11 12:19:00;;;;;;;14.23;4.30;;;;;;;4.20;56.78;101549.98;1841972;77;21227;-92
2020/12/11 12:29:12;;;;;;;10.45;3.52;;;;;;;4.26;55.74;101567.36;1753150;81;21304;-92
2020/12/11 12:31:48;;;;;;;15.65;4.40;;;;;;;4.34;55.54;101570.41;1753194;81;21181;-93
2020/12/11 12:55:07;;;;;;;17.65;4.70;;;;;;;3.99;57.26;101555.66;1768083;80;21259;-91
2020/12/11 13:32:03;;;;;;;16.42;5.70;;;;;;;3.06;59.61;101593.34;1753231;81;21264;-92
2020/12/11 13:38:09;;;;;;;23.05;7.17;;;;;;;2.99;59.95;101603.06;1753144;81;21143;-92
2020/12/11 13:40:35;;;;;;;16.95;5.30;;;;;;;2.70;60.96;101599.89;1753007;80;20941;-92
2020/12/11 13:46:43;;;;;;;19.10;6.37;;;;;;;2.68;61.55;101607.26;1753159;81;21223;-93
2020/12/11 13:49:10;;;;;;;20.55;6.80;;;;;;;2.57;61.58;101607.70;1752964;81;21587;-92
2020/12/11 13:55:17;;;;;;;18.75;6.92;;;;;;;2.52;61.81;101614.88;1752912;80;21552;-93
2020/12/11 13:57:42;;;;;;;18.05;5.70;;;;;;;2.22;62.77;101610.83;1753229;81;21483;-93
2020/12/11 14:00:08;;;;;;;16.60;5.70;;;;;;;2.31;62.83;101610.26;1753186;81;20981;-93
2020/12/11 14:02:34;;;;;;;18.05;5.10;;;;;;;2.12;63.44;101618.72;1753169;81;21647;-92
2020/12/11 14:05:00;;;;;;;17.98;6.00;;;;;;;2.21;63.39;101602.55;1753213;81;20975;-92
2020/12/11 14:07:58;;;;;;;22.30;6.72;;;;;;;2.25;62.93;101601.16;1822826;77;20961;-92
2020/12/11 14:10:24;;;;;;;17.35;5.80;;;;;;;2.11;63.23;101613.91;1861922;77;21112;-91
2020/12/11 14:12:50;;;;;;;14.63;5.75;;;;;;;2.30;62.44;101607.80;1862120;77;20929;-92
2020/12/11 14:22:48;;;;;;;15.60;5.10;;;;;;;1.99;63.59;101602.05;1862016;77;21596;-91
2020/12/11 14:25:04;;;;;;;17.57;5.50;;;;;;;1.89;63.69;101594.84;1856576;77;21092;-91